This is the latest recevied weather packets stored in our database for station/object 9W2CHF-3. If no packets are shown the sender has not sent any weather packets the latest 10 day(s).
| Time | Temp. | Humidity | Pressure | Rain* | Wind** | Luminosity | Snow |
|---|---|---|---|---|---|---|---|
| 1778115690 | 31.11° C | 93% | 1010 hPa | - | - | - | - |
| 1778114490 | 30° C | 100% | 1010.1 hPa | - | - | - | - |
| 1778113290 | 30° C | 98% | 1009.9 hPa | - | - | - | - |
| 1778112090 | 28.89° C | 100% | 1009.5 hPa | - | - | - | - |
| 1778110890 | 28.89° C | 100% | 1009.3 hPa | - | - | - | - |
| 1778109690 | 29.44° C | 100% | 1009.1 hPa | - | - | - | - |
| 1778108490 | 28.33° C | 100% | 1008.9 hPa | - | - | - | - |
| 1778107290 | 28.33° C | 100% | 1008.9 hPa | - | - | - | - |
| 1778106090 | 29.44° C | 100% | 1008.8 hPa | - | - | - | - |
| 1778104889 | 28.33° C | 100% | 1008.5 hPa | - | - | - | - |
| 1778103689 | 28.33° C | 100% | 1008.5 hPa | - | - | - | - |
| 1778102490 | 28.33° C | 100% | 1008.4 hPa | - | - | - | - |
| 1778101289 | 28.89° C | 99% | 1008.1 hPa | - | - | - | - |
| 1778100089 | 29.44° C | 99% | 1007.9 hPa | - | - | - | - |
| 1778098889 | 29.44° C | 99% | 1008 hPa | - | - | - | - |
| 1778097689 | 29.44° C | 100% | 1008.2 hPa | - | - | - | - |
| 1778096489 | 28.89° C | 100% | 1008.2 hPa | - | - | - | - |
| 1778095289 | 30° C | 100% | 1008.4 hPa | - | - | - | - |
| 1778094089 | 30° C | 100% | 1008.6 hPa | - | - | - | - |
| 1778092889 | 29.44° C | 100% | 1008.9 hPa | - | - | - | - |
| 1778091688 | 30.56° C | 96% | 1009.1 hPa | - | - | - | - |
| 1778090488 | 31.11° C | 94% | 1009.3 hPa | - | - | - | - |
| 1778089287 | 31.11° C | 93% | 1009.5 hPa | - | - | - | - |
| 1778088087 | 30° C | 98% | 1009.6 hPa | - | - | - | - |
| 1778086898 | 30.56° C | 96% | 1010.3 hPa | - | - | - | - |
* Rain since midnight (hover to see other rain measurements)
** Current wind speed in m/s (hover to see current wind gust speed)